Time;durP1;ratioP1;P1;durP2;ratioP2;P2;SDS_P1;SDS_P2;PMS_P1;PMS_P2;Temp;Humidity;BMP_temperature;BMP_pressure;BME280_temperature;BME280_humidity;BME280_pressure;Samples;Min_cycle;Max_cycle;Signal;HPM_P1;HPM_P2
2021/01/11 00:01:46;;;;;;;32.33;22.63;;;;;;;;;;6230296;23;20035;-87
2021/01/11 00:04:13;;;;;;;34.17;23.52;;;;;;;;;;6255696;23;20035;-87
2021/01/11 00:06:40;;;;;;;33.80;22.40;;;;;;;;;;6230484;23;20329;-87
2021/01/11 00:09:07;;;;;;;33.65;22.88;;;;;;;;;;6259529;23;20119;-86
2021/01/11 00:11:35;;;;;;;34.95;23.42;;;;;;;;;;6232409;23;20059;-87
2021/01/11 00:14:06;;;;;;;34.83;23.63;;;;;;;;;;6232147;23;20024;-87
2021/01/11 00:16:32;;;;;;;38.92;24.65;;;;;;;;;;6252082;23;20095;-87
2021/01/11 00:18:59;;;;;;;39.45;25.30;;;;;;;;;;6252593;23;20410;-86
2021/01/11 00:21:27;;;;;;;34.08;23.83;;;;;;;;;;6251958;23;20225;-86
2021/01/11 00:23:53;;;;;;;37.75;25.08;;;;;;;;;;6241654;23;20043;-86
2021/01/11 00:26:19;;;;;;;35.30;23.67;;;;;;;;;;6243502;23;20028;-86
2021/01/11 00:28:45;;;;;;;38.88;24.67;;;;;;;;;;6244257;23;20051;-87
2021/01/11 00:31:13;;;;;;;42.05;25.23;;;;;;;;;;6268873;22;20038;-86
2021/01/11 00:33:39;;;;;;;39.08;23.88;;;;;;;;;;6227804;23;20025;-86
2021/01/11 00:36:05;;;;;;;43.05;25.40;;;;;;;;;;6223090;23;20051;-86
2021/01/11 00:38:32;;;;;;;39.80;25.35;;;;;;;;;;6223734;23;20399;-87
2021/01/11 00:40:58;;;;;;;44.47;26.23;;;;;;;;;;6252760;23;20092;-87
2021/01/11 00:43:24;;;;;;;43.60;25.88;;;;;;;;;;6252589;23;20028;-85
2021/01/11 00:45:53;;;;;;;42.15;26.77;;;;;;;;;;6226860;23;20142;-87
2021/01/11 00:48:22;;;;;;;43.88;27.85;;;;;;;;;;6252961;23;20028;-87
2021/01/11 00:50:57;;;;;;;49.33;27.50;;;;;;;;;;6253922;23;20109;-87
2021/01/11 00:53:23;;;;;;;42.83;25.98;;;;;;;;;;6227201;23;20032;-87
2021/01/11 00:55:50;;;;;;;44.40;27.08;;;;;;;;;;6238138;23;20040;-87
2021/01/11 00:58:17;;;;;;;43.67;27.85;;;;;;;;;;6269445;22;20028;-86
2021/01/11 01:00:44;;;;;;;44.97;28.20;;;;;;;;;;6266876;22;20028;-87
2021/01/11 01:03:10;;;;;;;49.85;29.42;;;;;;;;;;6253080;23;20047;-86
2021/01/11 01:05:37;;;;;;;44.58;28.35;;;;;;;;;;6237513;23;20026;-87
2021/01/11 01:08:03;;;;;;;47.30;28.70;;;;;;;;;;6233918;23;20076;-87
2021/01/11 01:10:30;;;;;;;42.83;27.95;;;;;;;;;;6268210;22;20036;-86
2021/01/11 01:12:59;;;;;;;50.05;28.50;;;;;;;;;;6257303;23;20410;-86
2021/01/11 01:15:26;;;;;;;51.88;29.95;;;;;;;;;;6223968;23;20024;-87
2021/01/11 01:17:56;;;;;;;47.78;29.90;;;;;;;;;;6224247;23;20048;-87
2021/01/11 01:20:22;;;;;;;51.28;30.13;;;;;;;;;;6249341;23;20024;-87
2021/01/11 01:22:51;;;;;;;50.70;30.98;;;;;;;;;;6249472;23;20024;-87
2021/01/11 01:25:17;;;;;;;47.70;29.70;;;;;;;;;;6250766;23;20032;-86
2021/01/11 01:27:43;;;;;;;53.70;30.65;;;;;;;;;;6252816;23;20028;-87
2021/01/11 01:30:10;;;;;;;57.38;31.65;;;;;;;;;;6224330;23;20086;-87
2021/01/11 01:32:40;;;;;;;52.60;30.60;;;;;;;;;;6250594;23;20074;-87
2021/01/11 01:35:08;;;;;;;55.78;33.08;;;;;;;;;;6224006;23;20116;-87
2021/01/11 01:37:34;;;;;;;54.50;31.98;;;;;;;;;;6251136;23;20048;-87
2021/01/11 01:40:03;;;;;;;53.92;30.23;;;;;;;;;;6248508;23;20024;-87
2021/01/11 01:42:29;;;;;;;50.22;30.98;;;;;;;;;;6221573;23;20375;-87
2021/01/11 01:44:55;;;;;;;56.30;32.28;;;;;;;;;;6250594;23;20028;-87
2021/01/11 01:47:21;;;;;;;50.25;29.50;;;;;;;;;;6248114;23;20066;-87
2021/01/11 01:49:48;;;;;;;57.90;31.90;;;;;;;;;;6248745;23;20440;-88
2021/01/11 01:52:15;;;;;;;51.90;29.90;;;;;;;;;;6253950;23;20047;-87
2021/01/11 01:54:44;;;;;;;53.97;30.50;;;;;;;;;;6249699;23;20357;-87
2021/01/11 01:57:12;;;;;;;56.10;30.13;;;;;;;;;;6250231;23;20032;-87
2021/01/11 01:59:42;;;;;;;57.55;31.88;;;;;;;;;;6223883;23;20050;-87
2021/01/11 02:02:15;;;;;;;52.08;31.40;;;;;;;;;;6251506;23;20309;-87
2021/01/11 02:04:42;;;;;;;61.92;33.15;;;;;;;;;;6249642;23;20039;-87
2021/01/11 02:07:29;;;;;;;64.82;34.88;;;;;;;;;;6248775;23;20024;-87
2021/01/11 02:10:08;;;;;;;56.75;33.20;;;;;;;;;;6223780;23;20066;-87
2021/01/11 02:12:41;;;;;;;60.15;34.92;;;;;;;;;;6250107;23;20353;-87
2021/01/11 02:15:12;;;;;;;60.80;34.08;;;;;;;;;;6222971;23;20028;-87
2021/01/11 02:17:53;;;;;;;64.00;33.67;;;;;;;;;;6248584;23;20044;-87
2021/01/11 02:20:28;;;;;;;67.30;35.05;;;;;;;;;;6248408;23;20030;-87
2021/01/11 02:22:57;;;;;;;67.57;36.47;;;;;;;;;;6249942;23;20035;-87
2021/01/11 02:25:42;;;;;;;66.25;34.42;;;;;;;;;;6248825;23;20757;-87
2021/01/11 02:28:28;;;;;;;68.85;35.28;;;;;;;;;;6223700;23;20056;-87
2021/01/11 02:30:58;;;;;;;59.88;32.38;;;;;;;;;;6249135;23;20020;-87
2021/01/11 02:33:25;;;;;;;58.65;32.97;;;;;;;;;;6222171;23;20332;-87
2021/01/11 02:35:52;;;;;;;64.22;34.22;;;;;;;;;;6249928;23;20024;-87
2021/01/11 02:38:19;;;;;;;67.22;34.42;;;;;;;;;;6223858;23;20119;-87
2021/01/11 02:40:45;;;;;;;60.80;33.70;;;;;;;;;;6221978;23;20035;-87
2021/01/11 02:43:12;;;;;;;60.47;33.17;;;;;;;;;;6223674;23;20078;-87
2021/01/11 02:45:38;;;;;;;62.35;32.63;;;;;;;;;;6222192;23;20024;-87
2021/01/11 02:48:10;;;;;;;60.38;33.85;;;;;;;;;;6248182;23;20027;-88
2021/01/11 02:50:40;;;;;;;60.90;34.40;;;;;;;;;;6222884;23;20032;-87
2021/01/11 02:53:41;;;;;;;66.93;35.30;;;;;;;;;;6222130;23;20024;-87
2021/01/11 02:56:08;;;;;;;65.05;35.80;;;;;;;;;;6214971;23;20025;-88
2021/01/11 02:58:55;;;;;;;61.97;33.15;;;;;;;;;;6216423;23;20099;-87
2021/01/11 03:01:22;;;;;;;65.18;33.03;;;;;;;;;;6222599;23;20024;-87
2021/01/11 03:03:50;;;;;;;65.88;34.63;;;;;;;;;;6222590;23;20088;-87
2021/01/11 03:06:16;;;;;;;65.63;35.22;;;;;;;;;;6249531;23;20611;-87
2021/01/11 03:08:43;;;;;;;60.88;33.13;;;;;;;;;;6223658;23;20032;-87
2021/01/11 03:11:09;;;;;;;69.30;34.15;;;;;;;;;;6223252;23;20043;-87
2021/01/11 03:13:35;;;;;;;64.75;33.15;;;;;;;;;;6223428;23;20054;-87
2021/01/11 03:16:03;;;;;;;66.70;33.90;;;;;;;;;;6226185;23;20039;-87
2021/01/11 03:18:30;;;;;;;65.03;33.55;;;;;;;;;;6252580;23;20039;-87
2021/01/11 03:21:05;;;;;;;65.22;32.63;;;;;;;;;;6253618;23;20028;-87
2021/01/11 03:23:34;;;;;;;65.25;33.58;;;;;;;;;;6225535;23;20079;-87
2021/01/11 03:26:00;;;;;;;61.88;32.22;;;;;;;;;;6223528;23;20028;-87
2021/01/11 03:28:29;;;;;;;60.90;32.83;;;;;;;;;;6223659;23;20119;-87
2021/01/11 03:30:55;;;;;;;62.15;31.42;;;;;;;;;;6223608;23;20079;-87
2021/01/11 03:33:21;;;;;;;57.22;32.38;;;;;;;;;;6250469;23;20039;-87
2021/01/11 03:35:48;;;;;;;60.58;31.55;;;;;;;;;;6249142;23;20051;-87
2021/01/11 03:38:14;;;;;;;58.42;31.17;;;;;;;;;;6218579;23;20025;-87
2021/01/11 03:40:41;;;;;;;62.38;31.50;;;;;;;;;;6247546;23;20024;-87
2021/01/11 03:43:07;;;;;;;58.45;32.08;;;;;;;;;;6217875;23;20364;-87
2021/01/11 03:45:34;;;;;;;59.50;31.77;;;;;;;;;;6222615;23;20043;-86
2021/01/11 03:48:00;;;;;;;54.97;30.50;;;;;;;;;;6230359;23;20027;-86
2021/01/11 03:50:26;;;;;;;58.22;30.83;;;;;;;;;;6268425;22;20127;-87
2021/01/11 03:52:52;;;;;;;61.80;31.88;;;;;;;;;;6257258;23;20394;-87
2021/01/11 03:55:18;;;;;;;62.08;32.63;;;;;;;;;;6249066;23;20313;-87
2021/01/11 03:57:44;;;;;;;62.83;32.17;;;;;;;;;;6249388;23;20068;-87
2021/01/11 04:00:11;;;;;;;63.58;31.30;;;;;;;;;;6222534;23;20048;-87
2021/01/11 04:02:37;;;;;;;60.63;31.58;;;;;;;;;;6221728;23;20028;-87
2021/01/11 04:05:04;;;;;;;59.78;32.67;;;;;;;;;;6249080;23;20020;-86
2021/01/11 04:07:30;;;;;;;63.28;33.78;;;;;;;;;;6222169;23;20178;-87
2021/01/11 04:09:56;;;;;;;62.67;32.80;;;;;;;;;;6247331;23;20032;-86
2021/01/11 04:12:23;;;;;;;57.00;32.63;;;;;;;;;;6216616;23;20044;-87
2021/01/11 04:14:50;;;;;;;58.90;31.35;;;;;;;;;;6243680;23;20091;-86
2021/01/11 04:17:19;;;;;;;60.88;34.80;;;;;;;;;;6245427;23;20047;-87
2021/01/11 04:19:46;;;;;;;70.63;34.25;;;;;;;;;;6245375;23;20421;-86
2021/01/11 04:22:12;;;;;;;65.43;34.30;;;;;;;;;;6215477;23;20103;-87
2021/01/11 04:24:38;;;;;;;64.30;33.90;;;;;;;;;;6221711;23;20031;-87
2021/01/11 04:27:05;;;;;;;62.15;32.35;;;;;;;;;;6221763;23;20407;-87
2021/01/11 04:29:31;;;;;;;61.05;32.92;;;;;;;;;;6232025;23;20017;-87
2021/01/11 04:31:58;;;;;;;64.68;32.85;;;;;;;;;;6241239;23;20020;-87
2021/01/11 04:34:24;;;;;;;61.72;32.38;;;;;;;;;;6241240;23;20072;-87
2021/01/11 04:36:57;;;;;;;60.28;32.67;;;;;;;;;;6224943;23;20028;-87
2021/01/11 04:39:23;;;;;;;62.65;32.05;;;;;;;;;;6225078;23;20047;-86
2021/01/11 04:41:49;;;;;;;60.80;32.10;;;;;;;;;;6254103;23;20333;-86
2021/01/11 04:44:17;;;;;;;68.00;34.58;;;;;;;;;;6267989;22;20012;-87
2021/01/11 04:46:45;;;;;;;66.13;33.13;;;;;;;;;;6265073;22;20086;-86
2021/01/11 04:49:12;;;;;;;60.00;33.80;;;;;;;;;;6231707;23;20325;-85
2021/01/11 04:51:40;;;;;;;62.60;32.92;;;;;;;;;;6254521;23;20032;-85
2021/01/11 04:54:08;;;;;;;62.67;33.35;;;;;;;;;;6222287;23;20072;-85
2021/01/11 04:56:39;;;;;;;68.88;35.10;;;;;;;;;;6249938;23;20153;-85
2021/01/11 04:59:06;;;;;;;67.50;32.45;;;;;;;;;;6224335;23;20076;-84
2021/01/11 05:01:32;;;;;;;57.33;31.17;;;;;;;;;;6251122;23;20024;-84
2021/01/11 05:03:59;;;;;;;64.38;32.08;;;;;;;;;;6226319;23;20118;-84
2021/01/11 05:06:26;;;;;;;57.45;32.00;;;;;;;;;;6228631;23;20035;-84
2021/01/11 05:09:07;;;;;;;55.15;30.27;;;;;;;;;;6226315;23;20477;-84
2021/01/11 05:11:35;;;;;;;55.88;29.85;;;;;;;;;;6263794;23;20036;-84
2021/01/11 05:14:02;;;;;;;50.05;28.20;;;;;;;;;;6228162;23;20059;-85
2021/01/11 05:16:30;;;;;;;47.70;28.38;;;;;;;;;;6228704;23;20413;-85
2021/01/11 05:19:16;;;;;;;44.72;27.42;;;;;;;;;;6222930;23;20086;-85
2021/01/11 05:21:44;;;;;;;48.80;26.75;;;;;;;;;;6228578;23;20058;-85
2021/01/11 05:24:32;;;;;;;45.00;25.65;;;;;;;;;;6232827;23;20308;-85
2021/01/11 05:27:00;;;;;;;41.45;24.48;;;;;;;;;;6224451;23;20028;-85
2021/01/11 05:29:27;;;;;;;37.30;21.42;;;;;;;;;;6250635;23;20202;-84
2021/01/11 05:31:58;;;;;;;40.72;24.45;;;;;;;;;;6251145;23;20149;-83
2021/01/11 05:34:43;;;;;;;35.78;21.88;;;;;;;;;;6223700;23;20024;-84
2021/01/11 05:37:09;;;;;;;37.72;22.33;;;;;;;;;;6249713;23;20092;-85
2021/01/11 05:39:39;;;;;;;34.65;20.52;;;;;;;;;;6249553;23;20067;-85
2021/01/11 05:42:19;;;;;;;32.92;21.63;;;;;;;;;;6223533;23;20051;-85
2021/01/11 05:44:59;;;;;;;33.92;20.58;;;;;;;;;;6222722;23;20028;-85
2021/01/11 05:47:29;;;;;;;32.87;20.70;;;;;;;;;;6246147;23;20436;-85
2021/01/11 05:50:06;;;;;;;32.20;20.65;;;;;;;;;;6262252;22;20012;-85
2021/01/11 05:52:32;;;;;;;27.05;18.77;;;;;;;;;;6261854;22;20012;-85
2021/01/11 05:55:17;;;;;;;29.95;18.73;;;;;;;;;;6262041;22;20241;-85
2021/01/11 05:57:52;;;;;;;29.50;18.95;;;;;;;;;;6243641;23;20094;-85
2021/01/11 06:00:18;;;;;;;33.88;20.88;;;;;;;;;;6244469;23;20111;-85
2021/01/11 06:02:47;;;;;;;26.90;17.58;;;;;;;;;;6242846;23;20024;-86
2021/01/11 06:05:14;;;;;;;26.33;18.27;;;;;;;;;;6220650;23;20028;-85
2021/01/11 06:07:42;;;;;;;27.08;17.23;;;;;;;;;;6245427;23;20105;-86
2021/01/11 06:10:11;;;;;;;30.75;18.73;;;;;;;;;;6243105;23;20020;-85
2021/01/11 06:12:38;;;;;;;23.40;17.15;;;;;;;;;;6251534;23;20024;-85
2021/01/11 06:15:09;;;;;;;26.80;18.17;;;;;;;;;;6234813;22;20039;-85
2021/01/11 06:17:37;;;;;;;26.75;16.73;;;;;;;;;;6261106;22;20071;-85
2021/01/11 06:20:05;;;;;;;23.95;16.73;;;;;;;;;;6234365;22;20045;-85
2021/01/11 06:22:47;;;;;;;24.48;17.52;;;;;;;;;;6226161;23;20035;-86
2021/01/11 06:25:19;;;;;;;24.25;16.38;;;;;;;;;;6218303;23;20082;-86
2021/01/11 06:27:56;;;;;;;26.38;18.17;;;;;;;;;;6219305;23;20095;-85
2021/01/11 06:30:48;;;;;;;25.90;17.13;;;;;;;;;;6217708;23;20100;-85
2021/01/11 06:33:16;;;;;;;22.83;16.50;;;;;;;;;;6230184;23;20199;-86
2021/01/11 06:35:46;;;;;;;25.40;17.08;;;;;;;;;;6246679;23;20100;-86
2021/01/11 06:38:22;;;;;;;27.05;17.17;;;;;;;;;;6223042;23;20047;-86
2021/01/11 06:41:41;;;;;;;25.45;16.23;;;;;;;;;;6195289;23;20032;-86
2021/01/11 06:52:13;;;;;;;;;;;;;;;;;;;;;
2021/01/11 07:02:29;;;;;;;;;;;;;;;;;;;;;
2021/01/11 07:05:42;;;;;;;37.15;23.02;;;;;;;;;;6037632;23;20034;-85
2021/01/11 07:08:12;;;;;;;37.33;22.20;;;;;;;;;;6076537;23;20038;-85
2021/01/11 07:10:58;;;;;;;39.08;22.60;;;;;;;;;;6131220;23;20092;-86
2021/01/11 07:13:24;;;;;;;38.40;23.00;;;;;;;;;;6156814;23;20109;-86
2021/01/11 07:15:51;;;;;;;37.05;22.10;;;;;;;;;;6227235;23;20024;-86
2021/01/11 07:18:36;;;;;;;35.25;20.75;;;;;;;;;;6249912;23;20024;-86
2021/01/11 07:21:17;;;;;;;40.38;21.67;;;;;;;;;;6228572;23;20103;-86
2021/01/11 07:23:44;;;;;;;45.08;24.23;;;;;;;;;;6250416;23;20258;-85
2021/01/11 07:26:16;;;;;;;36.60;22.45;;;;;;;;;;6248183;23;20024;-85
2021/01/11 07:29:00;;;;;;;42.63;23.20;;;;;;;;;;6224117;23;20032;-85
2021/01/11 07:32:12;;;;;;;40.40;22.13;;;;;;;;;;6228176;23;20374;-85
2021/01/11 07:34:58;;;;;;;40.53;22.00;;;;;;;;;;6219705;23;20024;-85
2021/01/11 07:38:03;;;;;;;39.17;21.23;;;;;;;;;;6255085;23;20024;-86
2021/01/11 08:01:56;;;;;;;44.28;21.38;;;;;;;;;;5769784;24;20023;-87
2021/01/11 08:07:26;;;;;;;45.55;21.85;;;;;;;;;;6267901;22;20060;-88
2021/01/11 08:09:55;;;;;;;44.55;21.55;;;;;;;;;;6228086;23;20023;-88
2021/01/11 08:12:21;;;;;;;47.50;22.70;;;;;;;;;;6231014;23;20024;-88
2021/01/11 08:14:51;;;;;;;43.72;22.52;;;;;;;;;;6257474;23;20073;-88
2021/01/11 08:17:19;;;;;;;41.28;22.00;;;;;;;;;;6230469;22;20032;-88
2021/01/11 08:19:59;;;;;;;47.08;22.55;;;;;;;;;;6240180;22;20051;-88
2021/01/11 08:22:30;;;;;;;46.28;22.42;;;;;;;;;;6262470;22;20261;-88
2021/01/11 08:24:57;;;;;;;49.45;23.55;;;;;;;;;;6255346;23;20036;-88
2021/01/11 08:27:31;;;;;;;47.42;22.20;;;;;;;;;;6253042;23;20370;-86
2021/01/11 08:30:11;;;;;;;43.33;22.20;;;;;;;;;;6257717;23;20028;-89
2021/01/11 08:32:39;;;;;;;45.47;21.35;;;;;;;;;;6229920;23;20112;-87
2021/01/11 08:35:07;;;;;;;44.30;20.88;;;;;;;;;;6230653;23;20024;-88
2021/01/11 08:37:36;;;;;;;47.85;21.45;;;;;;;;;;6254015;23;20051;-88
2021/01/11 08:40:07;;;;;;;43.70;20.30;;;;;;;;;;6225401;23;20024;-87
2021/01/11 08:42:34;;;;;;;47.67;21.70;;;;;;;;;;6250591;23;20063;-88
2021/01/11 08:45:19;;;;;;;49.83;21.80;;;;;;;;;;6225991;23;20169;-88
2021/01/11 08:47:57;;;;;;;43.58;20.13;;;;;;;;;;6252809;23;20308;-87
2021/01/11 08:50:25;;;;;;;49.83;22.10;;;;;;;;;;6225585;23;20124;-87
2021/01/11 08:52:51;;;;;;;44.92;20.40;;;;;;;;;;6223285;23;20055;-87
2021/01/11 08:55:18;;;;;;;47.42;21.15;;;;;;;;;;6224861;23;20055;-87
2021/01/11 08:57:55;;;;;;;38.92;19.30;;;;;;;;;;6249559;23;20024;-86
2021/01/11 09:00:22;;;;;;;45.08;20.75;;;;;;;;;;6216708;23;20153;-86
2021/01/11 09:02:56;;;;;;;51.22;22.67;;;;;;;;;;6222852;23;20024;-87
2021/01/11 09:05:29;;;;;;;46.72;22.23;;;;;;;;;;6224262;23;20043;-86
2021/01/11 09:08:17;;;;;;;44.63;21.48;;;;;;;;;;6226049;23;20129;-86
2021/01/11 09:10:45;;;;;;;44.50;20.63;;;;;;;;;;6223582;23;20079;-85
2021/01/11 09:13:19;;;;;;;39.30;20.00;;;;;;;;;;6227417;23;20028;-85
2021/01/11 09:15:46;;;;;;;41.20;20.58;;;;;;;;;;6223975;23;20205;-85
2021/01/11 09:18:14;;;;;;;40.03;19.55;;;;;;;;;;6224700;23;20031;-86
2021/01/11 09:20:45;;;;;;;38.63;19.90;;;;;;;;;;6227838;23;20024;-86
2021/01/11 09:23:15;;;;;;;38.70;19.70;;;;;;;;;;6226159;23;20379;-86
2021/01/11 09:25:49;;;;;;;37.33;18.55;;;;;;;;;;6225708;23;20105;-86
2021/01/11 09:28:17;;;;;;;35.63;17.58;;;;;;;;;;6253722;23;20332;-86
2021/01/11 09:30:50;;;;;;;42.50;19.02;;;;;;;;;;6230295;23;20042;-86
2021/01/11 09:33:38;;;;;;;32.67;17.92;;;;;;;;;;6250545;23;20024;-86
2021/01/11 09:36:05;;;;;;;32.28;18.60;;;;;;;;;;6256478;23;20027;-86
2021/01/11 09:38:32;;;;;;;32.22;17.55;;;;;;;;;;6234274;23;20168;-86
2021/01/11 09:40:59;;;;;;;32.72;17.85;;;;;;;;;;6229457;23;20080;-84
2021/01/11 09:43:29;;;;;;;32.67;16.63;;;;;;;;;;6223772;23;20028;-85
2021/01/11 09:45:55;;;;;;;29.80;16.08;;;;;;;;;;6248600;23;20321;-85
2021/01/11 09:48:22;;;;;;;33.83;17.40;;;;;;;;;;6224092;23;20031;-85
2021/01/11 09:50:56;;;;;;;30.20;16.92;;;;;;;;;;6224782;23;20040;-85
2021/01/11 09:53:23;;;;;;;30.83;17.63;;;;;;;;;;6255344;23;20154;-86
2021/01/11 09:55:49;;;;;;;28.92;15.73;;;;;;;;;;6252002;23;20405;-86
2021/01/11 09:58:22;;;;;;;32.50;17.60;;;;;;;;;;6226769;23;20055;-85
2021/01/11 10:00:50;;;;;;;29.25;15.63;;;;;;;;;;6254326;23;20024;-85
2021/01/11 10:03:17;;;;;;;30.90;16.13;;;;;;;;;;6248768;23;20024;-85
2021/01/11 10:05:44;;;;;;;32.08;17.60;;;;;;;;;;6223225;23;20028;-85
2021/01/11 10:08:13;;;;;;;29.70;17.02;;;;;;;;;;6220602;23;20472;-85
2021/01/11 10:10:40;;;;;;;33.08;17.10;;;;;;;;;;6222100;23;20075;-85
2021/01/11 10:13:07;;;;;;;28.75;16.77;;;;;;;;;;6220866;23;20039;-84
2021/01/11 10:15:46;;;;;;;28.33;16.38;;;;;;;;;;6221597;23;20098;-86
2021/01/11 10:18:15;;;;;;;31.42;17.50;;;;;;;;;;6219547;23;20031;-85
2021/01/11 10:20:45;;;;;;;30.20;17.13;;;;;;;;;;6219632;23;20118;-85
2021/01/11 10:23:12;;;;;;;32.00;17.88;;;;;;;;;;6221928;23;20234;-86
2021/01/11 10:25:40;;;;;;;33.30;17.73;;;;;;;;;;6244649;23;20032;-86
2021/01/11 10:28:08;;;;;;;31.90;18.63;;;;;;;;;;6217682;23;20039;-86
2021/01/11 10:30:50;;;;;;;32.13;18.52;;;;;;;;;;6217523;23;20216;-85
2021/01/11 10:33:18;;;;;;;33.53;18.25;;;;;;;;;;6218344;23;20040;-85
2021/01/11 10:35:48;;;;;;;34.38;18.45;;;;;;;;;;6220608;23;20028;-85
2021/01/11 10:38:19;;;;;;;31.75;18.33;;;;;;;;;;6221476;23;20024;-85
2021/01/11 10:40:46;;;;;;;34.60;17.80;;;;;;;;;;6248018;22;20032;-87
2021/01/11 10:43:13;;;;;;;34.55;18.92;;;;;;;;;;6219981;23;20199;-84
2021/01/11 10:45:43;;;;;;;39.65;19.55;;;;;;;;;;6222260;23;20027;-85
2021/01/11 10:48:12;;;;;;;37.95;20.33;;;;;;;;;;6248611;23;20087;-86
2021/01/11 10:50:41;;;;;;;40.30;21.00;;;;;;;;;;6222685;23;20322;-86
2021/01/11 10:53:08;;;;;;;37.25;18.95;;;;;;;;;;6219449;23;20177;-84
2021/01/11 10:55:35;;;;;;;37.15;19.38;;;;;;;;;;6220125;23;20310;-84
2021/01/11 10:58:01;;;;;;;37.40;20.33;;;;;;;;;;6249034;23;20035;-84
2021/01/11 11:00:28;;;;;;;38.90;20.80;;;;;;;;;;6222848;23;20035;-85
2021/01/11 11:02:55;;;;;;;39.40;21.15;;;;;;;;;;6250422;23;20024;-85
2021/01/11 11:05:24;;;;;;;40.33;22.25;;;;;;;;;;6223153;23;20036;-85
2021/01/11 11:07:54;;;;;;;42.15;23.45;;;;;;;;;;6224155;23;20028;-85
2021/01/11 11:10:28;;;;;;;39.08;21.08;;;;;;;;;;6223843;23;20043;-85
2021/01/11 11:12:57;;;;;;;38.78;20.52;;;;;;;;;;6221722;23;20047;-84
2021/01/11 11:15:23;;;;;;;37.33;20.42;;;;;;;;;;6222422;23;20028;-84
2021/01/11 11:17:52;;;;;;;43.60;20.20;;;;;;;;;;6224008;23;20025;-84
2021/01/11 11:20:20;;;;;;;38.90;21.20;;;;;;;;;;6225742;23;20023;-86
2021/01/11 11:22:55;;;;;;;37.03;21.05;;;;;;;;;;6223122;23;20024;-85
2021/01/11 11:25:25;;;;;;;36.90;19.77;;;;;;;;;;6222868;23;20050;-84
2021/01/11 11:27:55;;;;;;;39.63;19.48;;;;;;;;;;6224025;23;20089;-85
2021/01/11 11:30:34;;;;;;;38.50;21.17;;;;;;;;;;6224667;23;20039;-84
2021/01/11 11:33:12;;;;;;;36.00;19.55;;;;;;;;;;6227200;23;20024;-85
2021/01/11 11:35:42;;;;;;;35.78;21.33;;;;;;;;;;6225200;23;20176;-85
2021/01/11 11:38:09;;;;;;;38.08;20.40;;;;;;;;;;6228477;23;20028;-89
2021/01/11 11:40:56;;;;;;;42.13;22.10;;;;;;;;;;6238638;23;20020;-90
2021/01/11 11:43:27;;;;;;;35.03;19.70;;;;;;;;;;6266795;22;20137;-90
2021/01/11 11:45:54;;;;;;;35.25;20.35;;;;;;;;;;6268288;22;20058;-89
2021/01/11 11:48:21;;;;;;;38.17;19.70;;;;;;;;;;6234948;23;20017;-89
2021/01/11 11:50:47;;;;;;;40.20;20.77;;;;;;;;;;6258267;23;20475;-89
2021/01/11 11:53:17;;;;;;;39.13;20.00;;;;;;;;;;6256655;23;20094;-90
2021/01/11 11:55:43;;;;;;;33.45;20.20;;;;;;;;;;6266783;22;20163;-90
2021/01/11 11:58:13;;;;;;;36.15;20.70;;;;;;;;;;6265794;22;20054;-90
2021/01/11 12:00:39;;;;;;;33.70;18.63;;;;;;;;;;6241211;22;20051;-90
2021/01/11 12:03:15;;;;;;;;;;;;;;;;;;6268244;22;20036;-89
2021/01/11 12:05:41;;;;;;;31.88;19.30;;;;;;;;;;6262991;22;19919;-90
2021/01/11 12:08:08;;;;;;;27.90;16.98;;;;;;;;;;6232167;23;20032;-90
2021/01/11 12:10:34;;;;;;;32.40;18.13;;;;;;;;;;6257305;23;20078;-90
2021/01/11 12:13:00;;;;;;;35.58;18.05;;;;;;;;;;6258869;23;20043;-90
2021/01/11 12:15:26;;;;;;;33.58;19.20;;;;;;;;;;6259556;23;20024;-89
2021/01/11 12:18:13;;;;;;;32.25;17.70;;;;;;;;;;6258045;23;20028;-90
2021/01/11 12:20:43;;;;;;;34.38;20.02;;;;;;;;;;6259953;23;20024;-90
2021/01/11 12:23:09;;;;;;;32.70;18.90;;;;;;;;;;6257220;23;20038;-90
2021/01/11 12:25:35;;;;;;;30.92;18.30;;;;;;;;;;6257366;23;20052;-90
2021/01/11 12:28:06;;;;;;;31.88;17.17;;;;;;;;;;6259312;22;20028;-86
2021/01/11 12:30:32;;;;;;;31.95;17.92;;;;;;;;;;6241975;22;20012;-89
2021/01/11 12:33:02;;;;;;;29.67;17.33;;;;;;;;;;6266990;22;20036;-89
2021/01/11 12:35:28;;;;;;;27.92;16.42;;;;;;;;;;6232414;23;20040;-89
2021/01/11 12:37:54;;;;;;;30.55;17.55;;;;;;;;;;6232909;23;20025;-90
2021/01/11 12:40:21;;;;;;;32.38;18.65;;;;;;;;;;6257285;23;20024;-90
2021/01/11 12:42:47;;;;;;;32.30;18.90;;;;;;;;;;6231007;23;20024;-90
2021/01/11 12:45:14;;;;;;;30.80;18.48;;;;;;;;;;6259916;23;20028;-90
2021/01/11 12:47:55;;;;;;;29.65;18.00;;;;;;;;;;6260490;23;20024;-90
2021/01/11 12:50:22;;;;;;;26.90;17.23;;;;;;;;;;6257810;23;20514;-90
2021/01/11 12:52:48;;;;;;;32.78;18.30;;;;;;;;;;6233436;23;20032;-91
2021/01/11 12:55:14;;;;;;;30.42;18.63;;;;;;;;;;6259414;23;20032;-89
2021/01/11 12:57:41;;;;;;;31.85;18.27;;;;;;;;;;6229025;23;20110;-89
2021/01/11 13:00:07;;;;;;;32.72;19.10;;;;;;;;;;6225420;23;20039;-89
2021/01/11 13:02:36;;;;;;;33.90;19.50;;;;;;;;;;6253879;23;20024;-89
2021/01/11 13:05:03;;;;;;;31.80;18.35;;;;;;;;;;6230581;23;20182;-89
2021/01/11 13:07:31;;;;;;;29.58;19.70;;;;;;;;;;6227719;23;20029;-90
2021/01/11 13:10:00;;;;;;;31.20;18.33;;;;;;;;;;6226962;23;20032;-90
2021/01/11 13:22:35;;;;;;;29.40;19.23;;;;;;;;;;6222782;23;20047;-86
2021/01/11 13:25:02;;;;;;;35.33;19.50;;;;;;;;;;6218483;23;20104;-86
2021/01/11 13:27:29;;;;;;;29.25;19.10;;;;;;;;;;6219066;23;20029;-85
2021/01/11 13:30:00;;;;;;;32.13;19.10;;;;;;;;;;6246381;23;20035;-85
2021/01/11 13:32:40;;;;;;;32.40;18.20;;;;;;;;;;6222089;23;20016;-87
2021/01/11 13:35:08;;;;;;;29.30;18.25;;;;;;;;;;6224098;23;20044;-85
2021/01/11 13:37:48;;;;;;;33.90;20.10;;;;;;;;;;6222154;23;20025;-85
2021/01/11 13:40:14;;;;;;;31.35;19.75;;;;;;;;;;6226730;23;20024;-86
2021/01/11 13:42:40;;;;;;;33.28;19.23;;;;;;;;;;6221693;23;20048;-86
2021/01/11 13:45:07;;;;;;;30.30;18.42;;;;;;;;;;6226015;23;20073;-86
2021/01/11 13:48:08;;;;;;;33.42;19.88;;;;;;;;;;6225813;23;20055;-86
2021/01/11 13:50:43;;;;;;;28.52;18.52;;;;;;;;;;6225135;23;20052;-87
2021/01/11 13:53:15;;;;;;;27.73;18.65;;;;;;;;;;6223905;23;20364;-85
2021/01/11 13:55:41;;;;;;;28.95;19.73;;;;;;;;;;6220868;23;20076;-85
2021/01/11 13:58:10;;;;;;;31.83;18.35;;;;;;;;;;6225068;23;20028;-86
2021/01/11 14:00:40;;;;;;;30.25;18.45;;;;;;;;;;6224647;23;20025;-86
2021/01/11 14:03:10;;;;;;;30.80;18.17;;;;;;;;;;6225587;23;20051;-84
2021/01/11 14:05:40;;;;;;;32.97;20.13;;;;;;;;;;6224182;23;20090;-84
2021/01/11 14:08:08;;;;;;;29.35;18.27;;;;;;;;;;6220854;23;20040;-86
2021/01/11 14:20:56;;;;;;;26.02;16.98;;;;;;;;;;5992584;23;20067;-87
2021/01/11 14:23:25;;;;;;;30.27;19.52;;;;;;;;;;6107962;23;20026;-87
2021/01/11 14:25:52;;;;;;;29.65;18.63;;;;;;;;;;6229126;23;20047;-88
2021/01/11 14:28:19;;;;;;;31.35;19.08;;;;;;;;;;6252481;23;20184;-88
2021/01/11 14:30:45;;;;;;;30.15;19.38;;;;;;;;;;6223789;23;20144;-87
2021/01/11 14:33:30;;;;;;;30.17;19.63;;;;;;;;;;6253652;23;20028;-87
2021/01/11 14:35:56;;;;;;;31.00;19.80;;;;;;;;;;6252566;23;20329;-87
2021/01/11 14:38:22;;;;;;;32.70;21.23;;;;;;;;;;6221421;23;20240;-87
2021/01/11 14:40:49;;;;;;;29.38;20.45;;;;;;;;;;6249680;23;20030;-87
2021/01/11 14:43:32;;;;;;;38.20;20.38;;;;;;;;;;6261258;23;20044;-87
2021/01/11 14:45:58;;;;;;;36.90;20.45;;;;;;;;;;6234966;23;20027;-88
2021/01/11 14:48:28;;;;;;;33.70;21.85;;;;;;;;;;6261062;23;20199;-87
2021/01/11 14:51:02;;;;;;;34.75;20.48;;;;;;;;;;6255269;23;20149;-86
2021/01/11 14:53:50;;;;;;;32.92;21.48;;;;;;;;;;6250611;23;20042;-87
2021/01/11 14:56:17;;;;;;;39.38;22.77;;;;;;;;;;6250473;23;20027;-86
2021/01/11 14:58:44;;;;;;;39.15;22.77;;;;;;;;;;6223886;23;20099;-86
2021/01/11 15:01:10;;;;;;;37.72;22.75;;;;;;;;;;6248894;23;20473;-86
2021/01/11 15:03:37;;;;;;;38.30;23.25;;;;;;;;;;6248576;23;20048;-85
2021/01/11 15:06:10;;;;;;;39.83;23.27;;;;;;;;;;6248341;23;20111;-85
2021/01/11 15:08:39;;;;;;;38.47;23.63;;;;;;;;;;6248624;23;20028;-85
2021/01/11 15:11:05;;;;;;;35.17;21.67;;;;;;;;;;6248581;23;20027;-85
2021/01/11 15:13:31;;;;;;;38.72;24.73;;;;;;;;;;6245509;23;20131;-85
2021/01/11 15:16:13;;;;;;;40.40;23.00;;;;;;;;;;6228861;23;20051;-85
2021/01/11 15:18:40;;;;;;;38.50;22.83;;;;;;;;;;6234334;23;20036;-85
2021/01/11 15:21:09;;;;;;;41.58;25.08;;;;;;;;;;6234699;23;20095;-86
2021/01/11 15:23:36;;;;;;;41.17;24.33;;;;;;;;;;6260263;22;20149;-86
2021/01/11 15:26:03;;;;;;;45.88;27.00;;;;;;;;;;6259380;22;20012;-84
2021/01/11 15:28:29;;;;;;;50.30;29.52;;;;;;;;;;6231393;22;20032;-85
2021/01/11 15:30:56;;;;;;;39.70;24.92;;;;;;;;;;6234823;22;20016;-87
2021/01/11 15:33:29;;;;;;;38.80;24.85;;;;;;;;;;6236002;22;20030;-86
2021/01/11 15:35:56;;;;;;;41.30;26.00;;;;;;;;;;6261353;22;20102;-86
2021/01/11 15:38:23;;;;;;;44.13;25.23;;;;;;;;;;6235181;23;20235;-86